createdAt,value
2018-02-10T00:00:12.944Z,0.00
2018-02-10T00:01:12.886Z,0.00
2018-02-10T00:02:12.850Z,0.00
2018-02-10T00:03:12.840Z,0.00
2018-02-10T00:04:12.790Z,0.00
2018-02-10T00:05:12.759Z,0.00
2018-02-10T00:06:12.731Z,0.00
2018-02-10T00:07:12.695Z,0.00
2018-02-10T00:08:12.666Z,0.00
2018-02-10T00:09:12.638Z,0.00
2018-02-10T00:10:14.494Z,0.00
2018-02-10T00:11:12.558Z,0.00
2018-02-10T00:12:12.553Z,0.00
2018-02-10T00:13:12.497Z,0.00
2018-02-10T00:14:12.467Z,0.00
2018-02-10T00:15:12.454Z,0.00
2018-02-10T00:16:12.400Z,0.00
2018-02-10T00:17:12.408Z,0.00
2018-02-10T00:18:12.344Z,0.00
2018-02-10T00:19:12.304Z,0.00
2018-02-10T00:20:12.268Z,0.00
2018-02-10T00:21:12.236Z,0.00
2018-02-10T00:22:12.209Z,0.00
2018-02-10T00:23:12.170Z,0.00
2018-02-10T00:24:12.158Z,0.00
2018-02-10T00:25:12.102Z,0.00
2018-02-10T00:26:12.070Z,0.00
2018-02-10T00:27:12.059Z,0.00
2018-02-10T00:28:12.008Z,0.00
2018-02-10T00:29:11.981Z,0.00
2018-02-10T00:30:11.946Z,0.00
2018-02-10T00:31:11.930Z,0.00
2018-02-10T00:32:11.881Z,0.00
2018-02-10T00:33:11.849Z,0.00
2018-02-10T00:34:11.818Z,0.00
2018-02-10T00:35:11.785Z,0.00
2018-02-10T00:36:11.750Z,0.00
2018-02-10T00:37:11.712Z,0.00
2018-02-10T00:38:11.677Z,0.00
2018-02-10T00:39:11.647Z,0.00
2018-02-10T00:40:11.613Z,0.00
2018-02-10T00:41:11.583Z,0.00
2018-02-10T00:42:11.559Z,0.00
2018-02-10T00:43:11.521Z,0.00
2018-02-10T00:44:11.484Z,0.00
2018-02-10T00:45:11.459Z,0.00
2018-02-10T00:46:11.422Z,0.00
2018-02-10T00:47:11.393Z,0.00
2018-02-10T00:48:11.358Z,0.00
2018-02-10T00:49:11.333Z,0.00
2018-02-10T00:50:11.293Z,0.00
2018-02-10T00:51:11.267Z,0.00
2018-02-10T00:52:11.226Z,0.00
2018-02-10T00:53:11.189Z,0.00
2018-02-10T00:54:11.162Z,0.00
2018-02-10T00:55:11.158Z,0.00
2018-02-10T00:56:11.095Z,0.00
2018-02-10T00:57:11.057Z,0.00
2018-02-10T00:58:11.027Z,0.00
2018-02-10T00:59:11.007Z,0.00
2018-02-10T01:00:10.964Z,0.00
2018-02-10T01:01:10.933Z,0.00
2018-02-10T01:02:10.958Z,0.00
2018-02-10T01:03:10.866Z,0.00
2018-02-10T01:04:10.836Z,0.00
2018-02-10T01:05:10.802Z,0.00
2018-02-10T01:06:10.787Z,0.00
2018-02-10T01:07:10.739Z,0.00
2018-02-10T01:08:10.707Z,0.00
2018-02-10T01:09:10.668Z,0.00
2018-02-10T01:10:10.632Z,0.00
2018-02-10T01:11:10.605Z,0.00
2018-02-10T01:12:10.567Z,0.00
2018-02-10T01:13:10.539Z,0.00
2018-02-10T01:14:10.506Z,0.00
2018-02-10T01:15:10.478Z,0.00
2018-02-10T01:16:10.441Z,0.00
2018-02-10T01:17:10.406Z,0.00
2018-02-10T01:18:10.371Z,0.00
2018-02-10T01:19:10.341Z,0.00
2018-02-10T01:20:10.306Z,0.00
2018-02-10T01:21:10.288Z,0.00
2018-02-10T01:22:10.251Z,0.00
2018-02-10T01:23:10.210Z,0.00
2018-02-10T01:24:10.173Z,0.00
2018-02-10T01:25:10.151Z,0.00
2018-02-10T01:26:10.113Z,0.00
2018-02-10T01:27:10.083Z,0.00
2018-02-10T01:28:10.050Z,0.00
2018-02-10T01:29:10.022Z,0.00
2018-02-10T01:30:10.020Z,0.00
2018-02-10T01:31:09.951Z,0.00
2018-02-10T01:32:09.919Z,0.00
2018-02-10T01:33:09.890Z,0.00
2018-02-10T01:34:09.864Z,0.00
2018-02-10T01:35:09.823Z,0.00
2018-02-10T01:36:09.783Z,0.00
2018-02-10T01:37:09.750Z,0.00
2018-02-10T01:38:09.719Z,0.00
2018-02-10T01:39:09.703Z,0.00
2018-02-10T01:40:09.654Z,0.00
2018-02-10T01:41:09.625Z,0.00
2018-02-10T01:42:09.589Z,0.00
2018-02-10T01:43:09.559Z,0.00
2018-02-10T01:44:09.526Z,0.00
2018-02-10T01:45:09.492Z,0.00
2018-02-10T01:46:09.459Z,0.00
2018-02-10T01:47:09.436Z,0.00
2018-02-10T01:48:09.395Z,0.00
2018-02-10T01:49:09.359Z,0.00
2018-02-10T01:50:09.338Z,0.00
2018-02-10T01:51:09.294Z,0.00
2018-02-10T01:52:09.267Z,0.00
2018-02-10T01:53:09.226Z,0.00
2018-02-10T01:54:09.204Z,0.00
2018-02-10T01:55:09.161Z,0.00
2018-02-10T01:56:09.136Z,0.00
2018-02-10T01:57:09.107Z,0.00
2018-02-10T01:58:09.071Z,0.00
2018-02-10T01:59:09.034Z,0.00
2018-02-10T02:00:09.007Z,0.00
2018-02-10T02:01:08.974Z,0.00
2018-02-10T02:02:08.947Z,0.00
2018-02-10T02:03:08.903Z,0.00
2018-02-10T02:04:08.876Z,0.00
2018-02-10T02:05:08.835Z,0.00
2018-02-10T02:06:08.804Z,0.00
2018-02-10T02:07:10.510Z,0.00
2018-02-10T02:08:08.742Z,0.00
2018-02-10T02:09:08.712Z,0.00
2018-02-10T02:10:08.671Z,0.00
2018-02-10T02:11:08.639Z,0.00
2018-02-10T02:12:08.606Z,0.00
2018-02-10T02:13:08.579Z,0.00
2018-02-10T02:14:08.544Z,0.00
2018-02-10T02:15:08.551Z,0.00
2018-02-10T02:16:08.484Z,0.00
2018-02-10T02:17:08.449Z,0.00
2018-02-10T02:18:08.413Z,0.00
2018-02-10T02:19:08.384Z,0.00
2018-02-10T02:20:08.352Z,0.00
2018-02-10T02:21:08.322Z,0.00
2018-02-10T02:22:08.288Z,0.00
2018-02-10T02:23:08.262Z,0.00
2018-02-10T02:24:08.219Z,0.00
2018-02-10T02:25:08.186Z,0.00
2018-02-10T02:26:08.168Z,0.00
2018-02-10T02:27:08.121Z,0.00
2018-02-10T02:28:08.086Z,0.00
2018-02-10T02:29:08.074Z,0.00
2018-02-10T02:30:08.020Z,0.00
2018-02-10T02:31:07.992Z,0.00
2018-02-10T02:32:10.504Z,0.00
2018-02-10T02:33:07.935Z,0.00
2018-02-10T02:34:07.890Z,0.00
2018-02-10T02:35:07.862Z,0.00
2018-02-10T02:36:07.824Z,0.00
2018-02-10T02:37:07.796Z,0.00
2018-02-10T02:38:07.766Z,0.00
2018-02-10T02:39:07.734Z,0.00
2018-02-10T02:40:07.694Z,0.00
2018-02-10T02:41:07.676Z,0.00
2018-02-10T02:42:07.632Z,0.00
2018-02-10T02:43:07.599Z,0.00
2018-02-10T02:44:07.587Z,0.00
2018-02-10T02:45:07.535Z,0.00
2018-02-10T02:46:07.493Z,0.00
2018-02-10T02:47:07.485Z,0.00
2018-02-10T02:48:07.431Z,0.00
2018-02-10T02:49:07.396Z,0.00
2018-02-10T02:50:07.389Z,0.00
2018-02-10T02:51:07.328Z,0.00
2018-02-10T02:52:07.307Z,0.00
2018-02-10T02:53:09.033Z,0.00
2018-02-10T02:54:07.230Z,0.00
2018-02-10T02:55:07.199Z,0.00
2018-02-10T02:56:10.015Z,0.00
2018-02-10T02:57:07.146Z,0.00
2018-02-10T02:58:07.102Z,0.00
2018-02-10T02:59:07.094Z,0.00
2018-02-10T03:00:07.043Z,0.00
2018-02-10T03:01:06.999Z,0.00
2018-02-10T03:02:07.008Z,0.00
2018-02-10T03:03:06.934Z,0.00
2018-02-10T03:04:06.900Z,0.00
2018-02-10T03:05:06.878Z,0.00
2018-02-10T03:06:08.501Z,0.00
2018-02-10T03:07:06.804Z,0.00
2018-02-10T03:08:06.779Z,0.00
2018-02-10T03:09:06.745Z,0.00
2018-02-10T03:10:06.710Z,0.00
2018-02-10T03:11:06.678Z,0.00
2018-02-10T03:12:09.508Z,0.00
2018-02-10T03:13:08.537Z,0.00
2018-02-10T03:14:06.576Z,0.00
2018-02-10T03:15:06.545Z,0.00
2018-02-10T03:16:06.515Z,0.00
2018-02-10T03:17:06.478Z,0.00
2018-02-10T03:18:06.450Z,0.00
2018-02-10T03:19:06.409Z,0.00
2018-02-10T03:20:06.378Z,0.00
2018-02-10T03:21:06.350Z,0.00
2018-02-10T03:22:06.316Z,0.00
2018-02-10T03:23:06.286Z,0.00
2018-02-10T03:24:06.251Z,0.00
2018-02-10T03:25:06.225Z,0.00
2018-02-10T03:26:06.178Z,0.00
2018-02-10T03:27:06.149Z,0.00
2018-02-10T03:28:06.116Z,0.00
2018-02-10T03:29:06.086Z,0.00
2018-02-10T03:30:08.011Z,0.00
2018-02-10T03:31:06.018Z,0.00
2018-02-10T03:32:05.984Z,0.00
2018-02-10T03:33:05.955Z,0.00
2018-02-10T03:34:05.922Z,0.00
2018-02-10T03:35:05.894Z,0.00
2018-02-10T03:36:05.859Z,0.00
2018-02-10T03:37:05.827Z,0.00
2018-02-10T03:38:05.794Z,0.00
2018-02-10T03:39:05.757Z,0.00
2018-02-10T03:40:05.726Z,0.00
2018-02-10T03:41:07.524Z,0.00
2018-02-10T03:42:05.656Z,0.00
2018-02-10T03:43:05.623Z,0.00
2018-02-10T03:44:05.592Z,0.00
2018-02-10T03:45:05.562Z,0.00
2018-02-10T03:46:05.527Z,0.00
2018-02-10T03:47:07.020Z,0.00
2018-02-10T03:48:05.505Z,0.00
2018-02-10T03:49:05.447Z,0.00
2018-02-10T03:50:05.400Z,0.00
2018-02-10T03:51:05.369Z,0.00
2018-02-10T03:52:05.335Z,0.00
2018-02-10T03:53:05.304Z,0.00
2018-02-10T03:54:05.269Z,0.00
2018-02-10T03:55:05.237Z,0.00
2018-02-10T03:56:05.204Z,0.00
2018-02-10T03:57:05.168Z,0.00
2018-02-10T03:58:05.130Z,0.00
2018-02-10T03:59:07.057Z,0.00
2018-02-10T04:00:05.071Z,0.00
2018-02-10T04:01:05.037Z,0.00
2018-02-10T04:02:05.020Z,0.00
2018-02-10T04:03:05.043Z,0.00
2018-02-10T04:04:04.938Z,0.00
2018-02-10T04:05:04.918Z,0.00
2018-02-10T04:06:04.876Z,0.00
2018-02-10T04:07:04.849Z,0.00
2018-02-10T04:08:04.813Z,0.00
2018-02-10T04:09:04.778Z,0.00
2018-02-10T04:10:04.753Z,0.00
2018-02-10T04:11:04.717Z,0.00
2018-02-10T04:12:04.686Z,0.00
2018-02-10T04:13:04.643Z,0.00
2018-02-10T04:14:07.531Z,0.00
2018-02-10T04:15:04.591Z,0.00
2018-02-10T04:16:04.546Z,0.00
2018-02-10T04:17:04.517Z,0.00
2018-02-10T04:18:04.484Z,0.00
2018-02-10T04:19:04.454Z,0.00
2018-02-10T04:20:04.415Z,0.00
2018-02-10T04:21:04.386Z,0.00
2018-02-10T04:22:04.352Z,0.00
2018-02-10T04:23:04.324Z,0.00
2018-02-10T04:24:04.288Z,0.00
2018-02-10T04:25:04.258Z,0.00
2018-02-10T04:26:06.043Z,0.00
2018-02-10T04:27:04.184Z,0.00
2018-02-10T04:28:04.155Z,0.00
2018-02-10T04:29:04.123Z,0.00
2018-02-10T04:30:04.090Z,0.00
2018-02-10T04:31:04.061Z,0.00
2018-02-10T04:32:04.032Z,0.00
2018-02-10T04:33:03.994Z,0.00
2018-02-10T04:34:03.958Z,0.00
2018-02-10T04:35:03.928Z,0.00
2018-02-10T04:36:03.896Z,0.00
2018-02-10T04:37:03.861Z,0.00
2018-02-10T04:38:05.508Z,0.00
2018-02-10T04:39:03.794Z,0.00
2018-02-10T04:40:03.767Z,0.00
2018-02-10T04:41:03.755Z,0.00
2018-02-10T04:42:03.693Z,0.00
2018-02-10T04:43:03.662Z,0.00
2018-02-10T04:44:03.656Z,0.00
2018-02-10T04:45:05.511Z,0.00
2018-02-10T04:46:03.576Z,0.00
2018-02-10T04:47:03.544Z,0.00
2018-02-10T04:48:05.011Z,0.00
2018-02-10T04:49:03.471Z,0.00
2018-02-10T04:50:03.435Z,0.00
2018-02-10T04:51:03.401Z,0.00
2018-02-10T04:52:05.011Z,0.00
2018-02-10T04:53:03.335Z,0.00
2018-02-10T04:54:03.311Z,0.00
2018-02-10T04:55:03.276Z,0.00
2018-02-10T04:56:03.234Z,0.00
2018-02-10T04:57:05.026Z,0.00
2018-02-10T04:58:03.180Z,0.00
2018-02-10T04:59:03.137Z,0.00
2018-02-10T05:00:03.105Z,0.00
2018-02-10T05:01:03.098Z,0.00
2018-02-10T05:02:05.022Z,0.00
2018-02-10T05:03:03.009Z,0.00
2018-02-10T05:04:02.982Z,0.00
2018-02-10T05:05:02.956Z,0.00
2018-02-10T05:06:02.915Z,0.00
2018-02-10T05:07:02.882Z,0.00
2018-02-10T05:08:02.847Z,0.00
2018-02-10T05:09:02.809Z,0.00
2018-02-10T05:10:02.801Z,0.00
2018-02-10T05:11:02.754Z,0.00
2018-02-10T05:12:02.722Z,0.00
2018-02-10T05:13:02.688Z,0.00
2018-02-10T05:14:04.510Z,0.00
2018-02-10T05:15:02.619Z,0.00
2018-02-10T05:16:02.590Z,0.00
2018-02-10T05:17:02.556Z,0.00
2018-02-10T05:18:02.520Z,0.00
2018-02-10T05:19:02.498Z,0.00
2018-02-10T05:20:02.456Z,0.00
2018-02-10T05:21:02.425Z,0.00
2018-02-10T05:22:02.395Z,0.00
2018-02-10T05:23:02.413Z,0.00
2018-02-10T05:24:02.326Z,0.00
2018-02-10T05:25:04.034Z,0.00
2018-02-10T05:26:02.254Z,0.00
2018-02-10T05:27:02.222Z,0.00
2018-02-10T05:28:02.210Z,0.00
2018-02-10T05:29:02.162Z,0.00
2018-02-10T05:30:02.127Z,0.00
2018-02-10T05:31:02.122Z,0.00
2018-02-10T05:32:02.066Z,0.00
2018-02-10T05:33:02.040Z,0.00
2018-02-10T05:34:02.033Z,0.00
2018-02-10T05:35:01.960Z,0.00
2018-02-10T05:36:01.985Z,0.00
2018-02-10T05:37:01.924Z,0.00
2018-02-10T05:38:01.898Z,0.00
2018-02-10T05:39:01.855Z,0.00
2018-02-10T05:40:01.849Z,0.00
2018-02-10T05:41:01.768Z,0.00
2018-02-10T05:42:01.747Z,0.00
2018-02-10T05:43:01.743Z,0.00
2018-02-10T05:44:01.708Z,0.00
2018-02-10T05:45:01.638Z,0.00
2018-02-10T05:46:01.632Z,0.00
2018-02-10T05:47:03.527Z,0.00
2018-02-10T05:48:01.537Z,0.00
2018-02-10T05:49:01.513Z,0.00
2018-02-10T05:50:01.471Z,0.00
2018-02-10T05:51:01.436Z,0.00
2018-02-10T05:52:01.463Z,0.00
2018-02-10T05:53:01.389Z,0.00
2018-02-10T05:54:01.337Z,0.00
2018-02-10T05:55:01.309Z,0.00
2018-02-10T05:56:01.278Z,0.00
2018-02-10T05:57:01.280Z,0.00
2018-02-10T05:58:01.243Z,0.00
2018-02-10T05:59:01.182Z,0.00
2018-02-10T06:00:01.151Z,0.00
2018-02-10T06:01:01.112Z,0.00
2018-02-10T06:02:04.033Z,0.00
2018-02-10T06:03:01.050Z,0.00
2018-02-10T06:04:01.047Z,0.00
2018-02-10T06:05:00.978Z,0.00
2018-02-10T06:06:00.946Z,0.00
2018-02-10T06:07:00.959Z,0.00
2018-02-10T06:08:00.889Z,0.00
2018-02-10T06:09:00.892Z,0.00
2018-02-10T06:10:00.817Z,0.00
2018-02-10T06:11:00.784Z,0.00
2018-02-10T06:12:00.749Z,0.00
2018-02-10T06:13:00.729Z,0.00
2018-02-10T06:14:00.691Z,0.00
2018-02-10T06:15:00.659Z,0.00
2018-02-10T06:16:00.635Z,0.00
2018-02-10T06:17:02.529Z,0.00
2018-02-10T06:18:00.565Z,0.00
2018-02-10T06:19:00.528Z,0.00
2018-02-10T06:20:00.492Z,0.00
2018-02-10T06:21:02.047Z,0.00
2018-02-10T06:22:00.453Z,0.00
2018-02-10T06:23:00.392Z,0.00
2018-02-10T06:24:00.366Z,0.00
2018-02-10T06:25:02.017Z,0.00
2018-02-10T06:26:00.292Z,0.00
2018-02-10T06:27:00.262Z,0.00
2018-02-10T06:28:00.241Z,0.00
2018-02-10T06:29:00.215Z,4.00
2018-02-10T06:30:00.178Z,4.00
2018-02-10T06:31:00.138Z,0.00
2018-02-10T06:32:00.106Z,4.00
2018-02-10T06:33:02.029Z,4.00
2018-02-10T06:34:00.054Z,4.00
2018-02-10T06:35:00.000Z,8.00
2018-02-10T06:35:59.980Z,4.00
2018-02-10T06:36:59.945Z,4.00
2018-02-10T06:37:59.913Z,8.00
2018-02-10T06:39:01.534Z,8.00
2018-02-10T06:39:59.846Z,8.00
2018-02-10T06:40:59.814Z,12.00
2018-02-10T06:41:59.782Z,12.00
2018-02-10T06:42:59.751Z,12.00
2018-02-10T06:43:59.723Z,12.00
2018-02-10T06:45:01.526Z,16.00
2018-02-10T06:45:59.643Z,20.00
2018-02-10T06:46:59.611Z,20.00
2018-02-10T06:47:59.585Z,24.00
2018-02-10T06:48:59.558Z,24.00
2018-02-10T06:49:59.598Z,24.00
2018-02-10T06:50:59.485Z,28.00
2018-02-10T06:51:59.448Z,32.00
2018-02-10T06:52:59.428Z,32.00
2018-02-10T06:53:59.390Z,32.00
2018-02-10T06:54:59.353Z,36.00
2018-02-10T06:55:59.330Z,44.00
2018-02-10T06:57:01.022Z,44.00
2018-02-10T06:57:59.261Z,48.00
2018-02-10T06:58:59.227Z,52.00
2018-02-10T06:59:59.196Z,56.00
2018-02-10T07:01:01.072Z,60.00
2018-02-10T07:01:59.124Z,68.00
2018-02-10T07:02:59.094Z,80.00
2018-02-10T07:03:59.056Z,84.00
2018-02-10T07:04:59.063Z,88.00
2018-02-10T07:05:58.991Z,96.00
2018-02-10T07:06:58.958Z,108.00
2018-02-10T07:07:58.928Z,112.00
2018-02-10T07:09:00.536Z,120.00
2018-02-10T07:09:58.875Z,128.00
2018-02-10T07:10:58.839Z,132.00
2018-02-10T07:11:58.806Z,136.00
2018-02-10T07:12:58.775Z,148.00
2018-02-10T07:13:58.739Z,160.00
2018-02-10T07:14:58.708Z,168.00
2018-02-10T07:15:58.672Z,180.00
2018-02-10T07:16:58.639Z,200.00
2018-02-10T07:17:58.617Z,216.00
2018-02-10T07:18:58.594Z,220.00
2018-02-10T07:19:58.544Z,232.00
2018-02-10T07:20:58.545Z,228.00
2018-02-10T07:21:58.624Z,212.00
2018-02-10T07:22:58.450Z,212.00
2018-02-10T07:24:01.023Z,208.00
2018-02-10T07:24:58.388Z,216.00
2018-02-10T07:25:58.370Z,224.00
2018-02-10T07:26:58.317Z,220.00
2018-02-10T07:27:58.286Z,224.00
2018-02-10T07:28:58.256Z,224.00
2018-02-10T07:29:58.224Z,232.00
2018-02-10T07:30:58.271Z,240.00
2018-02-10T07:31:58.220Z,244.00
2018-02-10T07:32:58.148Z,248.00
2018-02-10T07:33:58.132Z,264.00
2018-02-10T07:34:58.082Z,276.00
2018-02-10T07:35:58.094Z,288.00
2018-02-10T07:36:57.990Z,312.00
2018-02-10T07:37:57.957Z,316.00
2018-02-10T07:38:57.955Z,308.00
2018-02-10T07:39:57.899Z,332.00
2018-02-10T07:40:59.536Z,332.00
2018-02-10T07:41:57.830Z,344.00
2018-02-10T07:42:57.824Z,368.00
2018-02-10T07:43:57.804Z,384.00
2018-02-10T07:44:59.534Z,392.00
2018-02-10T07:45:57.702Z,364.00
2018-02-10T07:46:57.669Z,368.00
2018-02-10T07:47:57.636Z,368.00
2018-02-10T07:48:57.606Z,384.00
2018-02-10T07:49:57.592Z,428.00
2018-02-10T07:50:57.536Z,476.00
2018-02-10T07:51:57.512Z,504.00
2018-02-10T07:52:57.524Z,520.00
2018-02-10T07:53:57.443Z,520.00
2018-02-10T07:54:57.408Z,524.00
2018-02-10T07:55:57.374Z,504.00
2018-02-10T07:56:57.356Z,528.00
2018-02-10T07:57:57.315Z,532.00
2018-02-10T07:58:57.282Z,504.00
2018-02-10T07:59:57.564Z,516.00
2018-02-10T08:00:57.213Z,504.00
2018-02-10T08:01:57.182Z,496.00
2018-02-10T08:02:57.152Z,512.00
2018-02-10T08:03:58.118Z,528.00
2018-02-10T08:04:57.113Z,532.00
2018-02-10T08:05:57.092Z,564.00
2018-02-10T08:06:57.079Z,576.00
2018-02-10T08:07:57.105Z,604.00
2018-02-10T08:08:57.073Z,628.00
2018-02-10T08:09:56.992Z,660.00
2018-02-10T08:10:56.916Z,664.00
2018-02-10T08:11:56.857Z,688.00
2018-02-10T08:12:56.833Z,740.00
2018-02-10T08:13:56.801Z,788.00
2018-02-10T08:14:56.803Z,796.00
2018-02-10T08:15:58.546Z,788.00
2018-02-10T08:16:56.697Z,820.00
2018-02-10T08:17:56.693Z,876.00
2018-02-10T08:18:56.627Z,896.00
2018-02-10T08:19:56.596Z,860.00
2018-02-10T08:20:58.564Z,828.00
2018-02-10T08:21:56.528Z,808.00
2018-02-10T08:22:56.571Z,772.00
2018-02-10T08:23:56.479Z,776.00
2018-02-10T08:24:56.436Z,752.00
2018-02-10T08:25:56.399Z,764.00
2018-02-10T08:26:56.439Z,732.00
2018-02-10T08:27:59.026Z,716.00
2018-02-10T08:28:59.037Z,692.00
2018-02-10T08:29:56.287Z,648.00
2018-02-10T08:30:56.267Z,576.00
2018-02-10T08:31:56.221Z,580.00
2018-02-10T08:32:56.185Z,592.00
2018-02-10T08:33:56.140Z,564.00
2018-02-10T08:34:56.109Z,532.00
2018-02-10T08:35:56.092Z,516.00
2018-02-10T08:36:56.037Z,480.00
2018-02-10T08:37:56.009Z,460.00
2018-02-10T08:38:56.014Z,460.00
2018-02-10T08:39:57.530Z,492.00
2018-02-10T08:40:55.911Z,492.00
2018-02-10T08:41:55.913Z,496.00
2018-02-10T08:42:55.848Z,564.00
2018-02-10T08:43:55.854Z,640.00
2018-02-10T08:44:55.809Z,668.00
2018-02-10T08:45:55.743Z,732.00
2018-02-10T08:46:55.714Z,824.00
2018-02-10T08:47:55.679Z,844.00
2018-02-10T08:48:55.678Z,852.00
2018-02-10T08:49:55.612Z,832.00
2018-02-10T08:50:55.607Z,816.00
2018-02-10T08:51:55.556Z,800.00
2018-02-10T08:52:55.522Z,832.00
2018-02-10T08:53:55.510Z,824.00
2018-02-10T08:54:55.458Z,824.00
2018-02-10T08:55:58.046Z,876.00
2018-02-10T08:56:55.398Z,912.00
2018-02-10T08:57:55.354Z,864.00
2018-02-10T08:58:55.330Z,856.00
2018-02-10T08:59:55.292Z,840.00
2018-02-10T09:00:55.254Z,816.00
2018-02-10T09:01:55.222Z,868.00
2018-02-10T09:02:55.318Z,904.00
2018-02-10T09:03:55.156Z,896.00
2018-02-10T09:04:55.125Z,852.00
2018-02-10T09:05:55.090Z,860.00
2018-02-10T09:06:55.059Z,912.00
2018-02-10T09:07:55.027Z,968.00
2018-02-10T09:08:55.118Z,968.00
2018-02-10T09:09:54.994Z,936.00
2018-02-10T09:10:54.931Z,916.00
2018-02-10T09:11:54.904Z,936.00
2018-02-10T09:12:54.900Z,988.00
2018-02-10T09:13:54.841Z,1008.00
2018-02-10T09:14:54.801Z,1000.00
2018-02-10T09:15:54.776Z,1028.00
2018-02-10T09:16:54.740Z,976.00
2018-02-10T09:17:54.702Z,968.00
2018-02-10T09:18:54.667Z,864.00
2018-02-10T09:19:54.748Z,864.00
2018-02-10T09:20:54.601Z,872.00
2018-02-10T09:21:54.630Z,872.00
2018-02-10T09:22:54.538Z,868.00
2018-02-10T09:23:54.507Z,900.00
2018-02-10T09:24:54.481Z,960.00
2018-02-10T09:25:54.565Z,1028.00
2018-02-10T09:26:54.409Z,1032.00
2018-02-10T09:27:54.381Z,1048.00
2018-02-10T09:28:56.033Z,948.00
2018-02-10T09:29:56.079Z,988.00
2018-02-10T09:30:54.283Z,996.00
2018-02-10T09:31:54.250Z,976.00
2018-02-10T09:32:54.235Z,988.00
2018-02-10T09:33:54.182Z,956.00
2018-02-10T09:34:54.149Z,960.00
2018-02-10T09:35:54.116Z,920.00
2018-02-10T09:36:54.086Z,968.00
2018-02-10T09:37:54.049Z,1044.00
2018-02-10T09:38:54.033Z,1076.00
2018-02-10T09:39:54.004Z,1100.00
2018-02-10T09:40:53.958Z,1116.00
2018-02-10T09:41:53.923Z,1140.00
2018-02-10T09:42:53.894Z,1144.00
2018-02-10T09:43:53.865Z,1156.00
2018-02-10T09:44:53.824Z,1156.00
2018-02-10T09:45:53.794Z,1112.00
2018-02-10T09:46:53.778Z,1040.00
2018-02-10T09:47:53.780Z,992.00
2018-02-10T09:48:53.701Z,1016.00
2018-02-10T09:49:53.671Z,1024.00
2018-02-10T09:50:53.632Z,1040.00
2018-02-10T09:51:53.603Z,1100.00
2018-02-10T09:52:53.569Z,1160.00
2018-02-10T09:53:53.539Z,1224.00
2018-02-10T09:54:53.504Z,1252.00
2018-02-10T09:55:53.476Z,1288.00
2018-02-10T09:56:53.437Z,1324.00
2018-02-10T09:57:53.402Z,1388.00
2018-02-10T09:58:53.372Z,1460.00
2018-02-10T09:59:53.338Z,1404.00
2018-02-10T10:00:53.308Z,1312.00
2018-02-10T10:01:53.275Z,1272.00
2018-02-10T10:02:53.293Z,1348.00
2018-02-10T10:03:53.208Z,1352.00
2018-02-10T10:04:53.183Z,1428.00
2018-02-10T10:05:53.149Z,1444.00
2018-02-10T10:06:53.116Z,1480.00
2018-02-10T10:07:53.086Z,1400.00
2018-02-10T10:08:53.053Z,1340.00
2018-02-10T10:09:53.062Z,1304.00
2018-02-10T10:10:52.985Z,1344.00
2018-02-10T10:11:52.952Z,1424.00
2018-02-10T10:12:52.917Z,1524.00
2018-02-10T10:13:52.883Z,1564.00
2018-02-10T10:14:52.857Z,1572.00
2018-02-10T10:15:52.827Z,1580.00
2018-02-10T10:16:52.791Z,1600.00
2018-02-10T10:17:52.756Z,1664.00
2018-02-10T10:18:52.723Z,1608.00
2018-02-10T10:19:52.689Z,1536.00
2018-02-10T10:20:52.665Z,1568.00
2018-02-10T10:21:52.630Z,1680.00
2018-02-10T10:22:52.596Z,1768.00
2018-02-10T10:23:52.564Z,1732.00
2018-02-10T10:24:52.533Z,1696.00
2018-02-10T10:25:52.499Z,1660.00
2018-02-10T10:26:52.470Z,1640.00
2018-02-10T10:27:52.440Z,1540.00
2018-02-10T10:28:52.400Z,1512.00
2018-02-10T10:29:52.368Z,1528.00
2018-02-10T10:30:52.444Z,1568.00
2018-02-10T10:31:52.304Z,1596.00
2018-02-10T10:32:52.279Z,1612.00
2018-02-10T10:33:52.236Z,1560.00
2018-02-10T10:34:52.206Z,1496.00
2018-02-10T10:35:52.178Z,1476.00
2018-02-10T10:36:52.153Z,1440.00
2018-02-10T10:37:52.114Z,1432.00
2018-02-10T10:38:53.104Z,1428.00
2018-02-10T10:39:52.053Z,1408.00
2018-02-10T10:40:52.017Z,1392.00
2018-02-10T10:41:51.990Z,1456.00
2018-02-10T10:42:51.955Z,1560.00
2018-02-10T10:43:51.955Z,1728.00
2018-02-10T10:44:51.911Z,1844.00
2018-02-10T10:45:51.856Z,1800.00
2018-02-10T10:46:51.823Z,1660.00
2018-02-10T10:47:51.789Z,1652.00
2018-02-10T10:48:51.775Z,1684.00
2018-02-10T10:49:51.728Z,1688.00
2018-02-10T10:50:51.696Z,1672.00
2018-02-10T10:51:51.669Z,1688.00
2018-02-10T10:52:51.630Z,1676.00
2018-02-10T10:53:51.595Z,1644.00
2018-02-10T10:54:51.564Z,1600.00
2018-02-10T10:55:51.535Z,1588.00
2018-02-10T10:56:51.504Z,1612.00
2018-02-10T10:57:51.468Z,1616.00
2018-02-10T10:58:51.436Z,1672.00
2018-02-10T10:59:51.403Z,1724.00
2018-02-10T11:00:51.381Z,1804.00
2018-02-10T11:01:51.342Z,1788.00
2018-02-10T11:02:51.320Z,1692.00
2018-02-10T11:03:51.277Z,1644.00
2018-02-10T11:04:51.255Z,1668.00
2018-02-10T11:05:51.232Z,1712.00
2018-02-10T11:06:51.246Z,1716.00
2018-02-10T11:07:51.152Z,1640.00
2018-02-10T11:08:53.039Z,1536.00
2018-02-10T11:09:51.088Z,1428.00
2018-02-10T11:10:51.058Z,1368.00
2018-02-10T11:11:51.021Z,1400.00
2018-02-10T11:12:50.988Z,1400.00
2018-02-10T11:13:50.973Z,1344.00
2018-02-10T11:14:50.923Z,1272.00
2018-02-10T11:15:50.890Z,1224.00
2018-02-10T11:16:50.865Z,1176.00
2018-02-10T11:17:50.835Z,1184.00
2018-02-10T11:18:50.801Z,1192.00
2018-02-10T11:19:50.781Z,1180.00
2018-02-10T11:20:50.739Z,1168.00
2018-02-10T11:21:50.705Z,1212.00
2018-02-10T11:22:50.679Z,1216.00
2018-02-10T11:23:50.642Z,1216.00
2018-02-10T11:24:50.602Z,1212.00
2018-02-10T11:25:50.577Z,1200.00
2018-02-10T11:26:50.541Z,1196.00
2018-02-10T11:27:50.509Z,1216.00
2018-02-10T11:28:50.485Z,1216.00
2018-02-10T11:29:50.453Z,1164.00
2018-02-10T11:30:50.409Z,1160.00
2018-02-10T11:31:50.445Z,1168.00
2018-02-10T11:32:50.352Z,1232.00
2018-02-10T11:33:50.318Z,1244.00
2018-02-10T11:34:50.297Z,1256.00
2018-02-10T11:35:50.252Z,1240.00
2018-02-10T11:36:50.223Z,1272.00
2018-02-10T11:37:50.212Z,1368.00
2018-02-10T11:38:50.157Z,1448.00
2018-02-10T11:39:50.127Z,1496.00
2018-02-10T11:40:50.206Z,1500.00
2018-02-10T11:41:50.055Z,1516.00
2018-02-10T11:42:50.030Z,1468.00
2018-02-10T11:43:50.057Z,1404.00
2018-02-10T11:44:50.016Z,1364.00
2018-02-10T11:45:49.926Z,1372.00
2018-02-10T11:46:49.922Z,1380.00
2018-02-10T11:47:49.926Z,1420.00
2018-02-10T11:48:49.838Z,1516.00
2018-02-10T11:49:49.805Z,1592.00
2018-02-10T11:50:49.800Z,1752.00
2018-02-10T11:51:49.739Z,2040.00
2018-02-10T11:52:49.712Z,2012.00
2018-02-10T11:53:49.679Z,2048.00
2018-02-10T11:54:49.647Z,2004.00
2018-02-10T11:55:49.615Z,2036.00
2018-02-10T11:56:49.575Z,2124.00
2018-02-10T11:57:49.544Z,2148.00
2018-02-10T11:58:49.533Z,2260.00
2018-02-10T11:59:49.487Z,2276.00
2018-02-10T12:00:49.481Z,2420.00
2018-02-10T12:01:49.422Z,2476.00
2018-02-10T12:02:49.391Z,2528.00
2018-02-10T12:03:49.357Z,2604.00
2018-02-10T12:04:49.331Z,2472.00
2018-02-10T12:05:49.297Z,2284.00
2018-02-10T12:06:49.286Z,2164.00
2018-02-10T12:07:49.244Z,2088.00
2018-02-10T12:08:49.198Z,2016.00
2018-02-10T12:09:49.174Z,2088.00
2018-02-10T12:10:49.144Z,1984.00
2018-02-10T12:11:49.103Z,1952.00
2018-02-10T12:12:52.044Z,1892.00
2018-02-10T12:13:49.045Z,1920.00
2018-02-10T12:14:49.036Z,1892.00
2018-02-10T12:15:48.974Z,1864.00
2018-02-10T12:16:48.984Z,1820.00
2018-02-10T12:17:48.909Z,1820.00
2018-02-10T12:18:48.875Z,1836.00
2018-02-10T12:19:48.859Z,1756.00
2018-02-10T12:20:48.820Z,1676.00
2018-02-10T12:21:48.787Z,1616.00
2018-02-10T12:22:48.767Z,1580.00
2018-02-10T12:23:48.723Z,1628.00
2018-02-10T12:24:48.688Z,1684.00
2018-02-10T12:25:48.687Z,1608.00
2018-02-10T12:26:48.626Z,1524.00
2018-02-10T12:27:48.598Z,1476.00
2018-02-10T12:28:48.575Z,1456.00
2018-02-10T12:29:48.532Z,1400.00
2018-02-10T12:30:48.528Z,1448.00
2018-02-10T12:31:48.482Z,1508.00
2018-02-10T12:32:48.433Z,1664.00
2018-02-10T12:33:48.399Z,1800.00
2018-02-10T12:34:48.385Z,1832.00
2018-02-10T12:35:48.342Z,1696.00
2018-02-10T12:36:48.307Z,1548.00
2018-02-10T12:37:48.292Z,1408.00
2018-02-10T12:38:48.249Z,1280.00
2018-02-10T12:39:48.232Z,1196.00
2018-02-10T12:40:48.201Z,1160.00
2018-02-10T12:41:48.148Z,1128.00
2018-02-10T12:42:48.117Z,1064.00
2018-02-10T12:43:48.104Z,1052.00
2018-02-10T12:44:48.049Z,1060.00
2018-02-10T12:45:48.021Z,1092.00
2018-02-10T12:46:47.999Z,1148.00
2018-02-10T12:47:47.955Z,1248.00